Weather at Bordeaux-Mérignac Airport

Public forecast

Using degrees Celsius for public forecast. Weather courtesy of forecast.io.

Current aviation weather report (METAR) for Bordeaux-Mérignac Airport

Retrieved 2021/12/03 03:00 UTC (8 minutes ago):

LFBD 030300Z AUTO 26002KT 1100 0700 R23/1200U R05/1000D R29/1100U BCFG NSC 00/M00 Q1020 NOSIG

Aviation forecast (TAF) for Bordeaux-Mérignac Airport

Retrieved 2021-12-03 00:21 UTC (3 hours ago):

TAF LFBD 022300Z 0300/0406 36005KT CAVOK TX12/0401Z TN01/0305Z BECMG 0300/0302 VRB02KT PROB30 TEMPO 0303/0305 0800 BCFG BECMG 0305/0307 20005KT BECMG 0312/0314 -RA BKN020 TEMPO 0314/0319 3000 RA OVC005 BECMG 0319/0321 26015G25KT BKN012 TEMPO 0321/0406 26020G30KT 2000 RA OVC010